sensor_id;sensor_type;location;lat;lon;timestamp;pressure;altitude;pressure_sealevel;temperature;humidity
21730;BME280;11027;51.030;13.812;2023-04-28T00:02:07;100547.53;;;8.17;57.41
21730;BME280;11027;51.030;13.812;2023-04-28T00:04:32;100541.56;;;8.13;57.49
21730;BME280;11027;51.030;13.812;2023-04-28T00:06:57;100541.72;;;8.12;57.94
21730;BME280;11027;51.030;13.812;2023-04-28T00:09:23;100541.88;;;8.10;57.56
21730;BME280;11027;51.030;13.812;2023-04-28T00:11:48;100535.75;;;8.08;57.43
21730;BME280;11027;51.030;13.812;2023-04-28T00:14:13;100534.59;;;8.11;57.39
21730;BME280;11027;51.030;13.812;2023-04-28T00:16:38;100534.03;;;8.07;57.26
21730;BME280;11027;51.030;13.812;2023-04-28T00:19:04;100535.91;;;8.07;57.52
21730;BME280;11027;51.030;13.812;2023-04-28T00:21:29;100533.34;;;8.05;57.65
21730;BME280;11027;51.030;13.812;2023-04-28T00:23:54;100537.38;;;8.01;57.71
21730;BME280;11027;51.030;13.812;2023-04-28T00:26:20;100531.94;;;8.01;57.76
21730;BME280;11027;51.030;13.812;2023-04-28T00:28:45;100527.22;;;8.03;57.74
21730;BME280;11027;51.030;13.812;2023-04-28T00:31:12;100525.97;;;7.97;57.93
21730;BME280;11027;51.030;13.812;2023-04-28T00:33:40;100527.16;;;7.95;57.89
21730;BME280;11027;51.030;13.812;2023-04-28T00:36:07;100529.00;;;7.94;57.76
21730;BME280;11027;51.030;13.812;2023-04-28T00:38:32;100522.81;;;7.84;57.98
21730;BME280;11027;51.030;13.812;2023-04-28T00:40:57;100508.16;;;7.77;58.12
21730;BME280;11027;51.030;13.812;2023-04-28T00:43:23;100500.16;;;7.75;58.21
21730;BME280;11027;51.030;13.812;2023-04-28T00:45:49;100503.56;;;7.77;58.16
21730;BME280;11027;51.030;13.812;2023-04-28T00:48:14;100500.47;;;7.72;58.41
21730;BME280;11027;51.030;13.812;2023-04-28T00:50:41;100489.63;;;7.72;58.46
21730;BME280;11027;51.030;13.812;2023-04-28T00:53:07;100490.94;;;7.68;58.51
21730;BME280;11027;51.030;13.812;2023-04-28T00:55:34;100492.25;;;7.64;58.67
21730;BME280;11027;51.030;13.812;2023-04-28T00:57:59;100487.47;;;7.58;58.87
21730;BME280;11027;51.030;13.812;2023-04-28T01:00:26;100491.16;;;7.57;58.94
21730;BME280;11027;51.030;13.812;2023-04-28T01:02:52;100480.03;;;7.60;58.85
21730;BME280;11027;51.030;13.812;2023-04-28T01:05:18;100479.19;;;7.59;59.03
21730;BME280;11027;51.030;13.812;2023-04-28T01:07:43;100474.59;;;7.60;58.94
21730;BME280;11027;51.030;13.812;2023-04-28T01:10:08;100471.88;;;7.60;58.95
21730;BME280;11027;51.030;13.812;2023-04-28T01:12:34;100462.03;;;7.59;58.78
21730;BME280;11027;51.030;13.812;2023-04-28T01:14:59;100462.66;;;7.53;58.87
21730;BME280;11027;51.030;13.812;2023-04-28T01:17:25;100467.00;;;7.46;58.90
21730;BME280;11027;51.030;13.812;2023-04-28T01:19:50;100465.88;;;7.38;59.32
21730;BME280;11027;51.030;13.812;2023-04-28T01:22:17;100460.78;;;7.35;59.42
21730;BME280;11027;51.030;13.812;2023-04-28T01:24:42;100455.03;;;7.38;59.41
21730;BME280;11027;51.030;13.812;2023-04-28T01:27:07;100464.19;;;7.37;59.63
21730;BME280;11027;51.030;13.812;2023-04-28T01:29:32;100459.91;;;7.35;59.79
21730;BME280;11027;51.030;13.812;2023-04-28T01:31:58;100456.69;;;7.31;59.83
21730;BME280;11027;51.030;13.812;2023-04-28T01:34:23;100454.56;;;7.25;59.98
21730;BME280;11027;51.030;13.812;2023-04-28T01:36:48;100448.59;;;7.21;59.98
21730;BME280;11027;51.030;13.812;2023-04-28T01:39:14;100446.59;;;7.24;60.19
21730;BME280;11027;51.030;13.812;2023-04-28T01:41:39;100445.28;;;7.28;60.17
21730;BME280;11027;51.030;13.812;2023-04-28T01:44:04;100443.41;;;7.28;60.02
21730;BME280;11027;51.030;13.812;2023-04-28T01:46:31;100441.16;;;7.24;60.08
21730;BME280;11027;51.030;13.812;2023-04-28T01:48:57;100442.31;;;7.21;60.07
21730;BME280;11027;51.030;13.812;2023-04-28T01:51:22;100444.72;;;7.24;59.89
21730;BME280;11027;51.030;13.812;2023-04-28T01:53:47;100436.88;;;7.21;59.93
21730;BME280;11027;51.030;13.812;2023-04-28T01:56:12;100426.91;;;7.21;60.12
21730;BME280;11027;51.030;13.812;2023-04-28T01:58:38;100428.75;;;7.21;60.17
21730;BME280;11027;51.030;13.812;2023-04-28T02:01:03;100427.53;;;7.15;59.92
21730;BME280;11027;51.030;13.812;2023-04-28T02:03:28;100427.53;;;7.15;60.31
21730;BME280;11027;51.030;13.812;2023-04-28T02:05:54;100426.97;;;7.12;60.44
21730;BME280;11027;51.030;13.812;2023-04-28T02:08:19;100430.69;;;7.11;60.53
21730;BME280;11027;51.030;13.812;2023-04-28T02:10:44;100425.56;;;7.08;60.54
21730;BME280;11027;51.030;13.812;2023-04-28T02:13:10;100423.84;;;7.07;60.55
21730;BME280;11027;51.030;13.812;2023-04-28T02:15:41;100423.16;;;7.05;60.77
21730;BME280;11027;51.030;13.812;2023-04-28T02:18:07;100417.91;;;7.03;60.93
21730;BME280;11027;51.030;13.812;2023-04-28T02:20:32;100414.66;;;6.99;61.00
21730;BME280;11027;51.030;13.812;2023-04-28T02:22:57;100419.66;;;6.94;61.00
21730;BME280;11027;51.030;13.812;2023-04-28T02:25:22;100412.69;;;6.92;61.06
21730;BME280;11027;51.030;13.812;2023-04-28T02:27:48;100411.69;;;6.93;60.98
21730;BME280;11027;51.030;13.812;2023-04-28T02:30:13;100417.97;;;6.93;60.90
21730;BME280;11027;51.030;13.812;2023-04-28T02:32:38;100414.56;;;6.91;60.92
21730;BME280;11027;51.030;13.812;2023-04-28T02:35:04;100397.97;;;6.94;60.80
21730;BME280;11027;51.030;13.812;2023-04-28T02:37:29;100408.81;;;6.94;60.90
21730;BME280;11027;51.030;13.812;2023-04-28T02:39:55;100400.88;;;6.93;61.08
21730;BME280;11027;51.030;13.812;2023-04-28T02:42:20;100404.00;;;6.88;61.13
21730;BME280;11027;51.030;13.812;2023-04-28T02:44:45;100406.00;;;6.86;61.22
21730;BME280;11027;51.030;13.812;2023-04-28T02:47:11;100393.06;;;6.80;61.35
21730;BME280;11027;51.030;13.812;2023-04-28T02:49:36;100390.38;;;6.80;61.39
21730;BME280;11027;51.030;13.812;2023-04-28T02:52:01;100392.69;;;6.75;61.35
21730;BME280;11027;51.030;13.812;2023-04-28T02:54:27;100388.13;;;6.75;61.55
21730;BME280;11027;51.030;13.812;2023-04-28T02:56:55;100376.44;;;6.75;61.55
21730;BME280;11027;51.030;13.812;2023-04-28T02:59:21;100380.97;;;6.74;61.72
21730;BME280;11027;51.030;13.812;2023-04-28T03:01:47;100379.84;;;6.77;61.77
21730;BME280;11027;51.030;13.812;2023-04-28T03:04:13;100378.69;;;6.79;61.96
21730;BME280;11027;51.030;13.812;2023-04-28T03:06:39;100383.50;;;6.86;61.83
21730;BME280;11027;51.030;13.812;2023-04-28T03:09:04;100377.94;;;6.87;62.17
21730;BME280;11027;51.030;13.812;2023-04-28T03:11:30;100366.09;;;6.88;61.94
21730;BME280;11027;51.030;13.812;2023-04-28T03:13:56;100374.06;;;6.90;61.95
21730;BME280;11027;51.030;13.812;2023-04-28T03:16:21;100374.91;;;6.90;61.80
21730;BME280;11027;51.030;13.812;2023-04-28T03:18:46;100366.50;;;6.93;61.80
21730;BME280;11027;51.030;13.812;2023-04-28T03:21:11;100358.38;;;6.93;61.69
21730;BME280;11027;51.030;13.812;2023-04-28T03:23:37;100353.25;;;6.90;61.69
21730;BME280;11027;51.030;13.812;2023-04-28T03:26:02;100349.69;;;6.90;61.76
21730;BME280;11027;51.030;13.812;2023-04-28T03:28:27;100340.41;;;6.92;61.57
21730;BME280;11027;51.030;13.812;2023-04-28T03:30:53;100342.56;;;6.89;62.42
21730;BME280;11027;51.030;13.812;2023-04-28T03:33:18;100340.72;;;6.89;61.89
21730;BME280;11027;51.030;13.812;2023-04-28T03:35:43;100340.72;;;6.89;62.18
21730;BME280;11027;51.030;13.812;2023-04-28T03:38:09;100341.00;;;6.86;62.26
21730;BME280;11027;51.030;13.812;2023-04-28T03:40:34;100339.31;;;6.85;62.24
21730;BME280;11027;51.030;13.812;2023-04-28T03:42:59;100328.50;;;6.85;62.09
21730;BME280;11027;51.030;13.812;2023-04-28T03:45:25;100334.59;;;6.87;62.09
21730;BME280;11027;51.030;13.812;2023-04-28T03:47:50;100340.72;;;6.89;61.98
21730;BME280;11027;51.030;13.812;2023-04-28T03:50:15;100335.31;;;6.89;62.08
21730;BME280;11027;51.030;13.812;2023-04-28T03:52:41;100332.19;;;6.84;61.90
21730;BME280;11027;51.030;13.812;2023-04-28T03:55:06;100336.22;;;6.80;62.10
21730;BME280;11027;51.030;13.812;2023-04-28T03:57:31;100329.09;;;6.79;62.23
21730;BME280;11027;51.030;13.812;2023-04-28T03:59:57;100335.38;;;6.79;61.91
21730;BME280;11027;51.030;13.812;2023-04-28T04:02:22;100336.22;;;6.80;62.05
21730;BME280;11027;51.030;13.812;2023-04-28T04:04:47;100336.22;;;6.80;61.96
21730;BME280;11027;51.030;13.812;2023-04-28T04:07:12;100337.94;;;6.81;61.67
21730;BME280;11027;51.030;13.812;2023-04-28T04:09:38;100328.50;;;6.85;61.65
21730;BME280;11027;51.030;13.812;2023-04-28T04:12:03;100325.16;;;6.91;61.50
21730;BME280;11027;51.030;13.812;2023-04-28T04:14:29;100328.94;;;6.98;61.51
21730;BME280;11027;51.030;13.812;2023-04-28T04:16:54;100317.50;;;7.05;61.29
21730;BME280;11027;51.030;13.812;2023-04-28T04:19:20;100313.47;;;7.09;61.58
21730;BME280;11027;51.030;13.812;2023-04-28T04:21:47;100308.47;;;7.14;61.50
21730;BME280;11027;51.030;13.812;2023-04-28T04:24:13;100301.03;;;7.16;61.37
21730;BME280;11027;51.030;13.812;2023-04-28T04:26:38;100299.41;;;7.23;61.28
21730;BME280;11027;51.030;13.812;2023-04-28T04:29:03;100300.47;;;7.30;61.10
21730;BME280;11027;51.030;13.812;2023-04-28T04:31:28;100298.16;;;7.35;61.08
21730;BME280;11027;51.030;13.812;2023-04-28T04:33:54;100289.00;;;7.36;60.80
21730;BME280;11027;51.030;13.812;2023-04-28T04:36:19;100285.31;;;7.37;60.57
21730;BME280;11027;51.030;13.812;2023-04-28T04:38:44;100284.59;;;7.35;60.71
21730;BME280;11027;51.030;13.812;2023-04-28T04:41:09;100291.72;;;7.36;60.61
21730;BME280;11027;51.030;13.812;2023-04-28T04:43:35;100274.97;;;7.41;60.58
21730;BME280;11027;51.030;13.812;2023-04-28T04:46:00;100280.94;;;7.45;60.42
21730;BME280;11027;51.030;13.812;2023-04-28T04:48:27;100278.63;;;7.50;60.39
21730;BME280;11027;51.030;13.812;2023-04-28T04:50:53;100281.38;;;7.58;60.41
21730;BME280;11027;51.030;13.812;2023-04-28T04:53:18;100271.28;;;7.68;60.46
21730;BME280;11027;51.030;13.812;2023-04-28T04:55:43;100271.00;;;7.79;60.50
21730;BME280;11027;51.030;13.812;2023-04-28T04:58:08;100272.75;;;7.89;60.41
21730;BME280;11027;51.030;13.812;2023-04-28T05:00:34;100262.97;;;7.96;60.03
21730;BME280;11027;51.030;13.812;2023-04-28T05:03:00;100266.59;;;8.05;59.69
21730;BME280;11027;51.030;13.812;2023-04-28T05:05:25;100261.34;;;8.11;59.33
21730;BME280;11027;51.030;13.812;2023-04-28T05:07:50;100259.69;;;8.18;58.41
21730;BME280;11027;51.030;13.812;2023-04-28T05:10:16;100253.47;;;8.26;57.88
21730;BME280;11027;51.030;13.812;2023-04-28T05:12:41;100257.88;;;8.35;57.46
21730;BME280;11027;51.030;13.812;2023-04-28T05:15:08;100256.06;;;8.44;57.10
21730;BME280;11027;51.030;13.812;2023-04-28T05:17:34;100259.16;;;8.49;56.61
21730;BME280;11027;51.030;13.812;2023-04-28T05:19:59;100247.63;;;8.55;56.23
21730;BME280;11027;51.030;13.812;2023-04-28T05:22:24;100253.78;;;8.66;56.11
21730;BME280;11027;51.030;13.812;2023-04-28T05:24:51;100241.91;;;8.75;55.91
21730;BME280;11027;51.030;13.812;2023-04-28T05:27:17;100237.50;;;8.82;55.77
21730;BME280;11027;51.030;13.812;2023-04-28T05:29:42;100237.50;;;8.90;55.27
21730;BME280;11027;51.030;13.812;2023-04-28T05:32:08;100237.88;;;8.95;55.01
21730;BME280;11027;51.030;13.812;2023-04-28T05:34:33;100226.31;;;9.01;54.73
21730;BME280;11027;51.030;13.812;2023-04-28T05:36:59;100230.91;;;9.09;54.65
21730;BME280;11027;51.030;13.812;2023-04-28T05:39:25;100218.50;;;9.15;54.29
21730;BME280;11027;51.030;13.812;2023-04-28T05:41:50;100227.69;;;9.22;53.91
21730;BME280;11027;51.030;13.812;2023-04-28T05:44:15;100216.13;;;9.28;53.82
21730;BME280;11027;51.030;13.812;2023-04-28T05:46:41;100223.94;;;9.31;53.40
21730;BME280;11027;51.030;13.812;2023-04-28T05:49:06;100222.59;;;9.35;53.50
21730;BME280;11027;51.030;13.812;2023-04-28T05:51:31;100227.66;;;9.38;53.31
21730;BME280;11027;51.030;13.812;2023-04-28T05:53:57;100220.53;;;9.37;53.04
21730;BME280;11027;51.030;13.812;2023-04-28T05:56:23;100228.69;;;9.37;52.45
21730;BME280;11027;51.030;13.812;2023-04-28T05:58:48;100217.47;;;9.40;52.78
21730;BME280;11027;51.030;13.812;2023-04-28T06:01:15;100216.94;;;9.45;52.70
21730;BME280;11027;51.030;13.812;2023-04-28T06:03:41;100222.06;;;9.48;52.71
21730;BME280;11027;51.030;13.812;2023-04-28T06:06:07;100220.84;;;9.51;52.88
21730;BME280;11027;51.030;13.812;2023-04-28T06:08:32;100223.91;;;9.56;52.86
21730;BME280;11027;51.030;13.812;2023-04-28T06:10:58;100219.47;;;9.63;52.74
21730;BME280;11027;51.030;13.812;2023-04-28T06:13:23;100222.53;;;9.68;52.24
21730;BME280;11027;51.030;13.812;2023-04-28T06:15:48;100215.31;;;9.84;52.27
21730;BME280;11027;51.030;13.812;2023-04-28T06:18:14;100209.84;;;10.00;52.16
21730;BME280;11027;51.030;13.812;2023-04-28T06:20:40;100220.31;;;10.19;51.97
21730;BME280;11027;51.030;13.812;2023-04-28T06:23:06;100211.91;;;10.37;52.04
21730;BME280;11027;51.030;13.812;2023-04-28T06:25:31;100210.31;;;10.51;51.69
21730;BME280;11027;51.030;13.812;2023-04-28T06:27:56;100204.47;;;10.63;51.42
21730;BME280;11027;51.030;13.812;2023-04-28T06:30:22;100205.44;;;10.70;51.23
21730;BME280;11027;51.030;13.812;2023-04-28T06:32:48;100208.47;;;10.75;50.73
21730;BME280;11027;51.030;13.812;2023-04-28T06:35:14;100201.75;;;10.86;50.71
21730;BME280;11027;51.030;13.812;2023-04-28T06:37:40;100194.53;;;10.93;50.57
21730;BME280;11027;51.030;13.812;2023-04-28T06:40:06;100202.16;;;10.97;50.48
21730;BME280;11027;51.030;13.812;2023-04-28T06:42:31;100198.03;;;11.01;50.30
21730;BME280;11027;51.030;13.812;2023-04-28T06:44:57;100201.72;;;11.09;50.29
21730;BME280;11027;51.030;13.812;2023-04-28T06:47:22;100198.25;;;11.15;50.19
21730;BME280;11027;51.030;13.812;2023-04-28T06:49:47;100188.88;;;11.17;50.09
21730;BME280;11027;51.030;13.812;2023-04-28T06:52:14;100192.09;;;11.21;50.21
21730;BME280;11027;51.030;13.812;2023-04-28T06:54:39;100186.44;;;11.23;50.11
21730;BME280;11027;51.030;13.812;2023-04-28T06:57:05;100189.38;;;11.21;50.17
21730;BME280;11027;51.030;13.812;2023-04-28T06:59:30;100185.25;;;11.25;50.21
21730;BME280;11027;51.030;13.812;2023-04-28T07:01:56;100185.41;;;11.24;50.45
21730;BME280;11027;51.030;13.812;2023-04-28T07:04:21;100187.09;;;11.25;50.62
21730;BME280;11027;51.030;13.812;2023-04-28T07:06:46;100173.28;;;11.26;50.68
21730;BME280;11027;51.030;13.812;2023-04-28T07:09:12;100180.44;;;11.27;50.50
21730;BME280;11027;51.030;13.812;2023-04-28T07:11:37;100174.25;;;11.33;50.75
21730;BME280;11027;51.030;13.812;2023-04-28T07:14:02;100174.34;;;11.40;50.75
21730;BME280;11027;51.030;13.812;2023-04-28T07:16:28;100177.84;;;11.49;50.64
21730;BME280;11027;51.030;13.812;2023-04-28T07:18:53;100165.81;;;11.58;50.54
21730;BME280;11027;51.030;13.812;2023-04-28T07:21:18;100165.06;;;11.64;50.46
21730;BME280;11027;51.030;13.812;2023-04-28T07:23:45;100162.22;;;11.72;50.36
21730;BME280;11027;51.030;13.812;2023-04-28T07:26:11;100161.56;;;11.85;50.37
21730;BME280;11027;51.030;13.812;2023-04-28T07:28:36;100159.25;;;11.97;50.17
21730;BME280;11027;51.030;13.812;2023-04-28T07:31:01;100157.72;;;12.09;50.08
21730;BME280;11027;51.030;13.812;2023-04-28T07:33:27;100151.47;;;12.15;49.96
21730;BME280;11027;51.030;13.812;2023-04-28T07:35:52;100154.50;;;12.20;49.63
21730;BME280;11027;51.030;13.812;2023-04-28T07:38:18;100147.81;;;12.23;49.69
21730;BME280;11027;51.030;13.812;2023-04-28T07:40:45;100153.44;;;12.21;49.48
21730;BME280;11027;51.030;13.812;2023-04-28T07:43:10;100146.31;;;12.20;49.48
21730;BME280;11027;51.030;13.812;2023-04-28T07:45:38;100140.84;;;12.20;49.64
21730;BME280;11027;51.030;13.812;2023-04-28T07:48:04;100140.44;;;12.24;49.74
21730;BME280;11027;51.030;13.812;2023-04-28T07:50:29;100133.56;;;12.28;49.45
21730;BME280;11027;51.030;13.812;2023-04-28T07:52:55;100137.88;;;12.37;49.59
21730;BME280;11027;51.030;13.812;2023-04-28T07:55:20;100139.91;;;12.50;49.62
21730;BME280;11027;51.030;13.812;2023-04-28T07:57:45;100138.16;;;12.64;49.51
21730;BME280;11027;51.030;13.812;2023-04-28T08:00:11;100137.00;;;12.73;49.47
21730;BME280;11027;51.030;13.812;2023-04-28T08:02:36;100129.13;;;12.85;49.30
21730;BME280;11027;51.030;13.812;2023-04-28T08:05:02;100128.75;;;12.94;49.03
21730;BME280;11027;51.030;13.812;2023-04-28T08:07:27;100128.03;;;13.07;48.91
21730;BME280;11027;51.030;13.812;2023-04-28T08:09:53;100120.94;;;13.13;48.79
21730;BME280;11027;51.030;13.812;2023-04-28T08:12:19;100110.38;;;13.10;48.37
21730;BME280;11027;51.030;13.812;2023-04-28T08:14:44;100114.56;;;13.06;48.23
21730;BME280;11027;51.030;13.812;2023-04-28T08:17:10;100110.53;;;13.01;48.74
21730;BME280;11027;51.030;13.812;2023-04-28T08:19:35;100106.97;;;13.01;48.52
21730;BME280;11027;51.030;13.812;2023-04-28T08:22:00;100103.81;;;13.04;48.75
21730;BME280;11027;51.030;13.812;2023-04-28T08:24:29;100105.94;;;13.09;48.74
21730;BME280;11027;51.030;13.812;2023-04-28T08:26:58;100108.69;;;13.09;48.27
21730;BME280;11027;51.030;13.812;2023-04-28T08:29:24;100101.00;;;13.19;48.46
21730;BME280;11027;51.030;13.812;2023-04-28T08:31:50;100108.13;;;13.42;48.18
21730;BME280;11027;51.030;13.812;2023-04-28T08:34:15;100103.84;;;13.67;47.93
21730;BME280;11027;51.030;13.812;2023-04-28T08:36:40;100099.97;;;13.90;47.39
21730;BME280;11027;51.030;13.812;2023-04-28T08:39:05;100094.53;;;14.03;46.90
21730;BME280;11027;51.030;13.812;2023-04-28T08:41:37;100098.59;;;14.20;46.95
21730;BME280;11027;51.030;13.812;2023-04-28T08:44:07;100092.50;;;14.32;46.73
21730;BME280;11027;51.030;13.812;2023-04-28T08:46:33;100090.88;;;14.44;46.65
21730;BME280;11027;51.030;13.812;2023-04-28T08:48:59;100088.34;;;14.49;45.88
21730;BME280;11027;51.030;13.812;2023-04-28T08:51:33;100075.91;;;14.53;45.82
21730;BME280;11027;51.030;13.812;2023-04-28T08:54:02;100072.34;;;14.66;45.82
21730;BME280;11027;51.030;13.812;2023-04-28T08:56:33;100079.13;;;14.77;46.07
21730;BME280;11027;51.030;13.812;2023-04-28T08:59:02;100071.75;;;14.91;45.83
21730;BME280;11027;51.030;13.812;2023-04-28T09:01:29;100064.75;;;15.08;45.69
21730;BME280;11027;51.030;13.812;2023-04-28T09:03:55;100063.91;;;15.21;45.86
21730;BME280;11027;51.030;13.812;2023-04-28T09:06:20;100067.88;;;15.38;45.43
21730;BME280;11027;51.030;13.812;2023-04-28T09:08:46;100063.84;;;15.48;45.61
21730;BME280;11027;51.030;13.812;2023-04-28T09:11:12;100067.63;;;15.53;45.27
21730;BME280;11027;51.030;13.812;2023-04-28T09:13:39;100070.56;;;15.58;45.14
21730;BME280;11027;51.030;13.812;2023-04-28T09:16:05;100072.66;;;15.63;44.66
21730;BME280;11027;51.030;13.812;2023-04-28T09:18:31;100067.16;;;15.70;44.59
21730;BME280;11027;51.030;13.812;2023-04-28T09:23:29;100062.88;;;15.87;44.76
21730;BME280;11027;51.030;13.812;2023-04-28T09:28:26;100068.13;;;16.02;44.02
21730;BME280;11027;51.030;13.812;2023-04-28T09:30:51;100067.25;;;16.02;43.12
21730;BME280;11027;51.030;13.812;2023-04-28T09:33:17;100063.66;;;16.01;43.24
21730;BME280;11027;51.030;13.812;2023-04-28T09:35:42;100060.75;;;15.96;43.62
21730;BME280;11027;51.030;13.812;2023-04-28T09:38:10;100059.50;;;15.92;43.70
21730;BME280;11027;51.030;13.812;2023-04-28T09:41:10;100060.38;;;15.86;44.10
21730;BME280;11027;51.030;13.812;2023-04-28T09:43:36;100046.88;;;15.77;43.54
21730;BME280;11027;51.030;13.812;2023-04-28T09:46:03;100051.09;;;15.67;43.41
21730;BME280;11027;51.030;13.812;2023-04-28T09:48:34;100055.38;;;15.56;44.09
21730;BME280;11027;51.030;13.812;2023-04-28T09:51:02;100055.84;;;15.39;43.99
21730;BME280;11027;51.030;13.812;2023-04-28T09:53:28;100048.25;;;15.28;43.98
21730;BME280;11027;51.030;13.812;2023-04-28T09:55:55;100048.06;;;15.23;44.25
21730;BME280;11027;51.030;13.812;2023-04-28T09:58:23;100042.59;;;15.23;44.43
21730;BME280;11027;51.030;13.812;2023-04-28T10:00:52;100050.81;;;15.23;44.30
21730;BME280;11027;51.030;13.812;2023-04-28T10:03:20;100047.44;;;15.21;44.23
21730;BME280;11027;51.030;13.812;2023-04-28T10:05:46;100045.75;;;15.20;43.87
21730;BME280;11027;51.030;13.812;2023-04-28T10:08:11;100049.13;;;15.22;43.97
21730;BME280;11027;51.030;13.812;2023-04-28T10:10:37;100044.88;;;15.26;44.25
21730;BME280;11027;51.030;13.812;2023-04-28T10:13:03;100043.19;;;15.32;44.10
21730;BME280;11027;51.030;13.812;2023-04-28T10:15:29;100039.59;;;15.38;43.97
21730;BME280;11027;51.030;13.812;2023-04-28T10:17:54;100042.31;;;15.45;44.10
21730;BME280;11027;51.030;13.812;2023-04-28T10:20:20;100040.81;;;15.49;44.14
21730;BME280;11027;51.030;13.812;2023-04-28T10:22:57;100045.25;;;15.50;44.38
21730;BME280;11027;51.030;13.812;2023-04-28T10:25:28;100054.34;;;15.44;44.75
21730;BME280;11027;51.030;13.812;2023-04-28T10:27:56;100045.28;;;15.36;45.09
21730;BME280;11027;51.030;13.812;2023-04-28T10:30:25;100039.19;;;15.28;45.89
21730;BME280;11027;51.030;13.812;2023-04-28T10:33:22;100053.97;;;15.20;46.54
21730;BME280;11027;51.030;13.812;2023-04-28T10:35:48;100051.66;;;15.10;46.68
21730;BME280;11027;51.030;13.812;2023-04-28T10:38:15;100051.69;;;15.04;46.86
21730;BME280;11027;51.030;13.812;2023-04-28T10:40:45;100052.94;;;14.94;47.33
21730;BME280;11027;51.030;13.812;2023-04-28T10:43:12;100063.09;;;14.87;47.82
21730;BME280;11027;51.030;13.812;2023-04-28T10:48:23;100069.84;;;14.65;50.52
21730;BME280;11027;51.030;13.812;2023-04-28T10:56:09;100074.81;;;14.48;52.65
21730;BME280;11027;51.030;13.812;2023-04-28T10:58:34;100083.28;;;14.46;52.63
21730;BME280;11027;51.030;13.812;2023-04-28T11:03:56;100086.19;;;14.38;54.04
21730;BME280;11027;51.030;13.812;2023-04-28T11:08:57;100090.41;;;14.34;53.89
21730;BME280;11027;51.030;13.812;2023-04-28T11:11:25;100085.34;;;14.31;53.67
21730;BME280;11027;51.030;13.812;2023-04-28T11:13:52;100080.69;;;14.31;53.75
21730;BME280;11027;51.030;13.812;2023-04-28T11:16:20;100079.44;;;14.34;53.41
21730;BME280;11027;51.030;13.812;2023-04-28T11:19:04;100081.56;;;14.38;53.81
21730;BME280;11027;51.030;13.812;2023-04-28T11:21:34;100092.94;;;14.42;54.12
21730;BME280;11027;51.030;13.812;2023-04-28T11:24:00;100095.47;;;14.44;54.88
21730;BME280;11027;51.030;13.812;2023-04-28T11:26:26;100085.16;;;14.46;56.00
21730;BME280;11027;51.030;13.812;2023-04-28T11:28:53;100092.78;;;14.50;56.62
21730;BME280;11027;51.030;13.812;2023-04-28T11:31:20;100095.09;;;14.53;57.06
21730;BME280;11027;51.030;13.812;2023-04-28T11:33:52;100096.38;;;14.57;57.24
21730;BME280;11027;51.030;13.812;2023-04-28T11:36:32;100101.88;;;14.64;58.41
21730;BME280;11027;51.030;13.812;2023-04-28T11:38:59;100098.91;;;14.72;58.48
21730;BME280;11027;51.030;13.812;2023-04-28T11:41:25;100094.50;;;14.78;58.98
21730;BME280;11027;51.030;13.812;2023-04-28T11:43:51;100090.09;;;14.84;59.32
21730;BME280;11027;51.030;13.812;2023-04-28T11:46:22;100093.88;;;14.89;60.23
21730;BME280;11027;51.030;13.812;2023-04-28T11:48:47;100083.34;;;14.99;60.53
21730;BME280;11027;51.030;13.812;2023-04-28T11:51:33;100081.22;;;15.08;60.02
21730;BME280;11027;51.030;13.812;2023-04-28T11:53:58;100088.81;;;15.13;59.70
21730;BME280;11027;51.030;13.812;2023-04-28T11:56:25;100094.94;;;15.22;58.96
21730;BME280;11027;51.030;13.812;2023-04-28T11:59:10;100088.78;;;15.26;58.63
21730;BME280;11027;51.030;13.812;2023-04-28T12:01:50;100086.69;;;15.28;59.01
21730;BME280;11027;51.030;13.812;2023-04-28T12:04:39;100081.59;;;15.38;59.07
21730;BME280;11027;51.030;13.812;2023-04-28T12:07:11;100079.88;;;15.51;59.02
21730;BME280;11027;51.030;13.812;2023-04-28T12:09:39;100075.44;;;15.56;58.52
21730;BME280;11027;51.030;13.812;2023-04-28T12:12:10;100077.50;;;15.61;57.57
21730;BME280;11027;51.030;13.812;2023-04-28T12:14:58;100077.34;;;15.56;56.70
21730;BME280;11027;51.030;13.812;2023-04-28T12:17:27;100077.75;;;15.53;56.27
21730;BME280;11027;51.030;13.812;2023-04-28T12:19:57;100074.81;;;15.48;56.13
21730;BME280;11027;51.030;13.812;2023-04-28T12:22:24;100075.69;;;15.42;56.40
21730;BME280;11027;51.030;13.812;2023-04-28T12:25:02;100074.84;;;15.34;55.50
21730;BME280;11027;51.030;13.812;2023-04-28T12:27:27;100083.94;;;15.28;55.35
21730;BME280;11027;51.030;13.812;2023-04-28T12:29:53;100074.47;;;15.11;54.82
21730;BME280;11027;51.030;13.812;2023-04-28T12:32:36;100079.09;;;15.04;55.27
21730;BME280;11027;51.030;13.812;2023-04-28T12:35:01;100074.47;;;15.11;55.17
21730;BME280;11027;51.030;13.812;2023-04-28T12:37:30;100070.19;;;15.42;55.28
21730;BME280;11027;51.030;13.812;2023-04-28T12:39:55;100062.50;;;15.84;54.93
21730;BME280;11027;51.030;13.812;2023-04-28T12:42:20;100062.25;;;16.24;54.01
21730;BME280;11027;51.030;13.812;2023-04-28T12:44:47;100062.41;;;16.35;53.63
21730;BME280;11027;51.030;13.812;2023-04-28T12:47:13;100064.84;;;16.18;53.63
21730;BME280;11027;51.030;13.812;2023-04-28T12:49:38;100055.66;;;15.93;54.08
21730;BME280;11027;51.030;13.812;2023-04-28T12:52:04;100061.66;;;15.76;54.54
21730;BME280;11027;51.030;13.812;2023-04-28T12:54:29;100058.75;;;15.58;55.17
21730;BME280;11027;51.030;13.812;2023-04-28T12:56:55;100056.66;;;15.53;55.96
21730;BME280;11027;51.030;13.812;2023-04-28T12:59:21;100064.25;;;15.45;56.69
21730;BME280;11027;51.030;13.812;2023-04-28T13:01:47;100055.03;;;15.26;56.43